Oaks, Oklahoma
Current Conditions -  °F | °C
As of 5:15 PM on Monday 22 Dec 2014 (Local Time) from KTQH Reporting Station
Overcast Overcast  
Wind Chill: 45°   Ceiling: 4200
Heat Index: 48°   Visibility: 7mi
Dew Point: 46°   Wind: 8mph
Humidity: 93%   Direction: 280°W
Pressure: 29.6"   Gusts: NA
Location:  36.17°N, 94.85°W
Report Text: KTQH 222315Z AUTO 28007KT 7SM OVC042 09/08 A2960 RMK AO2
Loading
Personal Weather Stations






























Interactive Weather Map New forecast layout! Learn more

10-Day Weather Forecast

Advertisements
Track Severe Weather on mobile